Time;durP1;ratioP1;P1;durP2;ratioP2;P2;SDS_P1;SDS_P2;PMS_P1;PMS_P2;Temp;Humidity;BMP_temperature;BMP_pressure;BME280_temperature;BME280_humidity;BME280_pressure;Samples;Min_cycle;Max_cycle;Signal;HPM_P1;HPM_P2
2023/07/02 00:00:09;;;;;;;4.00;3.28;;;;;;;15.72;100.00;89072.84;5052869;28;20104;-76
2023/07/02 00:02:35;;;;;;;3.25;3.05;;;;;;;15.75;100.00;89053.63;5053857;28;20036;-75
2023/07/02 00:05:01;;;;;;;3.67;3.38;;;;;;;15.70;100.00;89058.44;5052962;28;20021;-76
2023/07/02 00:07:26;;;;;;;4.18;3.10;;;;;;;15.66;100.00;89049.56;5042993;28;20125;-75
2023/07/02 00:09:52;;;;;;;3.50;3.20;;;;;;;15.60;100.00;89059.66;5062900;28;20460;-75
2023/07/02 00:12:17;;;;;;;3.75;3.55;;;;;;;15.62;100.00;89038.91;5053423;28;20112;-75
2023/07/02 00:14:43;;;;;;;3.33;3.13;;;;;;;15.66;100.00;89023.09;5053469;28;20055;-75
2023/07/02 00:17:12;;;;;;;3.63;3.33;;;;;;;15.66;100.00;89002.69;5053781;28;20021;-76
2023/07/02 00:19:39;;;;;;;3.60;3.30;;;;;;;15.56;100.00;89008.44;5053766;28;20036;-75
2023/07/02 00:22:05;;;;;;;3.60;3.40;;;;;;;15.46;100.00;89020.28;5051767;28;20037;-75
2023/07/02 00:24:30;;;;;;;3.95;3.50;;;;;;;15.35;100.00;89016.56;5045433;28;20797;-75
2023/07/02 00:26:55;;;;;;;3.85;3.28;;;;;;;15.35;100.00;88993.47;5048624;28;20037;-75
2023/07/02 00:29:21;;;;;;;3.08;2.90;;;;;;;15.39;100.00;88956.53;5052032;28;20032;-79
2023/07/02 00:31:46;;;;;;;5.18;3.13;;;;;;;15.44;100.00;88912.03;5051343;28;20056;-75
2023/07/02 00:34:12;;;;;;;3.25;2.92;;;;;;;15.47;100.00;88874.28;5052793;28;20029;-76
2023/07/02 00:36:37;;;;;;;3.42;3.13;;;;;;;15.51;100.00;88831.22;5051115;28;20035;-76
2023/07/02 00:39:03;;;;;;;3.03;2.92;;;;;;;15.54;100.00;88788.94;5052553;28;20051;-76
2023/07/02 00:41:28;;;;;;;3.45;3.15;;;;;;;15.63;100.00;88733.16;5052798;28;20051;-75
2023/07/02 00:43:56;;;;;;;3.97;3.58;;;;;;;15.66;100.00;88721.84;5052265;28;20024;-75
2023/07/02 00:46:24;;;;;;;3.40;3.20;;;;;;;15.64;100.00;88731.25;5045432;28;20116;-75
2023/07/02 00:48:51;;;;;;;3.60;3.30;;;;;;;15.59;100.00;88724.34;5052839;28;20075;-75
2023/07/02 00:51:19;;;;;;;3.88;3.58;;;;;;;15.55;100.00;88708.38;5052598;28;20021;-75
2023/07/02 00:53:45;;;;;;;6.15;3.53;;;;;;;15.52;100.00;88668.53;5051909;28;20402;-75
2023/07/02 00:56:11;;;;;;;4.32;3.67;;;;;;;15.46;100.00;88650.28;5047062;28;20025;-75
2023/07/02 00:58:40;;;;;;;4.30;3.47;;;;;;;15.51;100.00;88596.28;5051848;28;20035;-75
2023/07/02 01:01:06;;;;;;;4.05;3.47;;;;;;;15.52;100.00;88567.91;5051536;28;20025;-75
2023/07/02 01:03:32;;;;;;;3.28;3.00;;;;;;;15.47;100.00;88537.94;5051341;28;20028;-75
2023/07/02 01:05:59;;;;;;;3.67;3.38;;;;;;;15.45;100.00;88495.16;5052598;28;20029;-76
2023/07/02 01:08:24;;;;;;;3.45;3.25;;;;;;;15.40;100.00;88471.59;5051613;28;20137;-77
2023/07/02 01:10:50;;;;;;;3.47;3.20;;;;;;;15.38;100.00;88428.03;5054623;28;20577;-76
2023/07/02 01:13:21;;;;;;;3.53;3.22;;;;;;;15.36;100.00;88377.31;5057134;28;20028;-75
2023/07/02 01:15:47;;;;;;;7.38;4.07;;;;;;;15.33;100.00;88323.19;5053658;28;20017;-75
2023/07/02 01:18:14;;;;;;;3.60;3.40;;;;;;;15.30;100.00;88270.94;5048748;28;20044;-76
2023/07/02 01:20:41;;;;;;;5.85;3.47;;;;;;;15.31;100.00;88201.00;5039690;28;20024;-75
2023/07/02 01:23:07;;;;;;;3.58;3.28;;;;;;;15.31;100.00;88145.41;5057713;28;20021;-75
2023/07/02 01:25:36;;;;;;;3.90;3.70;;;;;;;15.32;100.00;88086.03;5053201;28;20488;-75
2023/07/02 01:28:02;;;;;;;5.50;3.78;;;;;;;15.31;100.00;88056.16;5057375;28;20497;-76
2023/07/02 01:30:28;;;;;;;4.10;3.80;;;;;;;15.30;100.00;88022.88;5057472;28;20029;-76
2023/07/02 01:32:53;;;;;;;4.80;3.65;;;;;;;15.28;100.00;87956.28;5052349;28;20102;-75
2023/07/02 01:35:19;;;;;;;3.92;3.58;;;;;;;15.29;100.00;87910.16;5057259;28;20500;-75
2023/07/02 01:37:44;;;;;;;4.53;4.22;;;;;;;15.22;100.00;87893.44;5057011;28;20037;-75
2023/07/02 01:40:10;;;;;;;5.13;4.43;;;;;;;15.18;100.00;87866.94;5057677;28;20059;-75
2023/07/02 01:42:36;;;;;;;5.00;4.70;;;;;;;15.17;100.00;87826.47;5055998;28;20021;-75
2023/07/02 01:45:01;;;;;;;5.28;4.88;;;;;;;15.20;100.00;87780.00;5057363;28;20036;-76
2023/07/02 01:47:27;;;;;;;5.57;4.85;;;;;;;15.23;100.00;87734.25;5057069;28;20040;-76
2023/07/02 01:49:52;;;;;;;5.30;4.90;;;;;;;15.28;100.00;87701.41;5057198;28;20548;-75
2023/07/02 01:52:18;;;;;;;7.13;4.88;;;;;;;15.27;100.00;87676.06;5056385;28;20413;-76
2023/07/02 01:54:44;;;;;;;4.95;4.35;;;;;;;15.25;100.00;87642.03;5056992;28;20041;-76
2023/07/02 01:57:09;;;;;;;4.65;4.35;;;;;;;15.25;100.00;87453.38;5060823;28;20040;-76
2023/07/02 01:59:35;;;;;;;5.22;4.80;;;;;;;15.27;100.00;87544.50;5054990;28;20028;-76
2023/07/02 02:02:01;;;;;;;5.03;4.72;;;;;;;15.26;100.00;87521.81;5057441;28;20040;-76
2023/07/02 02:04:26;;;;;;;5.13;4.72;;;;;;;15.25;100.00;87516.88;5056832;28;20017;-76
2023/07/02 02:06:52;;;;;;;4.30;4.05;;;;;;;15.24;100.00;87494.19;5046822;28;20387;-76
2023/07/02 02:09:17;;;;;;;6.60;4.63;;;;;;;15.23;100.00;87505.91;5063628;28;20020;-76
2023/07/02 02:11:46;;;;;;;4.57;4.25;;;;;;;15.23;100.00;87498.72;5056962;28;20024;-77
2023/07/02 02:14:12;;;;;;;6.07;5.35;;;;;;;15.22;100.00;87488.50;5056588;28;20085;-76
2023/07/02 02:16:37;;;;;;;5.30;4.88;;;;;;;15.23;100.00;87487.38;5056819;28;20033;-76
2023/07/02 02:19:03;;;;;;;7.45;5.05;;;;;;;15.21;100.00;87510.81;5055227;28;20017;-76
2023/07/02 02:21:29;;;;;;;5.25;4.88;;;;;;;15.22;100.00;87541.44;5056368;28;20029;-76
2023/07/02 02:23:54;;;;;;;4.82;4.53;;;;;;;15.18;100.00;87550.13;5054162;28;20116;-76
2023/07/02 02:26:21;;;;;;;4.90;4.60;;;;;;;15.18;100.00;87546.72;5040100;28;20029;-76
2023/07/02 02:28:47;;;;;;;7.47;4.32;;;;;;;15.16;100.00;87557.69;5045171;28;20025;-76
2023/07/02 02:31:12;;;;;;;5.13;4.43;;;;;;;15.16;100.00;87568.25;5052929;28;20021;-76
2023/07/02 02:33:38;;;;;;;5.35;4.75;;;;;;;15.14;100.00;87554.66;5055849;28;20558;-76
2023/07/02 02:36:03;;;;;;;5.50;5.05;;;;;;;15.17;100.00;87531.97;5056375;28;20505;-76
2023/07/02 02:38:29;;;;;;;7.38;4.88;;;;;;;15.16;100.00;87512.69;5056755;28;20021;-76
2023/07/02 02:40:54;;;;;;;4.82;4.53;;;;;;;15.09;100.00;87523.22;5056191;28;20100;-76
2023/07/02 02:43:20;;;;;;;9.40;6.22;;;;;;;15.04;100.00;87531.50;5056364;28;20060;-76
2023/07/02 02:45:46;;;;;;;4.88;4.57;;;;;;;15.07;100.00;87516.78;5055216;28;20036;-76
2023/07/02 02:48:12;;;;;;;5.32;4.93;;;;;;;15.10;100.00;87489.59;5036989;28;20025;-76
2023/07/02 02:50:46;;;;;;;5.72;5.32;;;;;;;15.12;100.00;87482.03;5054426;28;20405;-76
2023/07/02 02:53:11;;;;;;;6.45;5.45;;;;;;;15.14;100.00;87454.09;5054420;28;20539;-76
2023/07/02 02:55:39;;;;;;;6.45;5.90;;;;;;;15.12;100.00;87451.03;5048022;28;20150;-76
2023/07/02 02:58:05;;;;;;;6.82;6.18;;;;;;;15.15;100.00;87429.16;5055866;28;20108;-76
2023/07/02 03:00:30;;;;;;;6.10;5.53;;;;;;;15.15;100.00;87429.16;5055724;28;20053;-76
2023/07/02 03:02:56;;;;;;;7.65;5.45;;;;;;;15.08;100.00;87434.38;5054513;28;20135;-76
2023/07/02 03:05:22;;;;;;;7.25;5.63;;;;;;;15.01;100.00;87463.47;5055533;28;20017;-76
2023/07/02 03:07:48;;;;;;;5.65;5.03;;;;;;;15.04;100.00;87457.44;5057370;28;20017;-76
2023/07/02 03:10:13;;;;;;;6.43;5.68;;;;;;;15.01;100.00;87456.28;5059447;28;20031;-76
2023/07/02 03:12:39;;;;;;;5.60;5.20;;;;;;;15.02;100.00;87443.81;5053476;28;20497;-76
2023/07/02 03:15:04;;;;;;;7.43;5.70;;;;;;;15.02;100.00;87414.72;5055274;28;20108;-76
2023/07/02 03:17:30;;;;;;;6.13;5.57;;;;;;;15.01;100.00;87402.63;5055930;28;20032;-76
2023/07/02 03:19:55;;;;;;;5.97;5.57;;;;;;;15.03;100.00;87374.66;5055382;28;20028;-75
2023/07/02 03:22:21;;;;;;;6.30;5.80;;;;;;;15.05;100.00;87363.69;5055607;28;20174;-75
2023/07/02 03:24:46;;;;;;;5.75;5.20;;;;;;;15.05;100.00;87347.81;5055063;28;20048;-75
2023/07/02 03:27:12;;;;;;;6.28;5.78;;;;;;;15.04;100.00;87303.97;5065794;28;20024;-75
2023/07/02 03:29:40;;;;;;;7.00;5.80;;;;;;;15.07;100.00;87294.53;5037465;28;20021;-75
2023/07/02 03:32:06;;;;;;;9.45;6.53;;;;;;;15.04;100.00;87280.16;5053736;28;20032;-76
2023/07/02 03:34:31;;;;;;;8.45;6.07;;;;;;;15.00;100.00;87282.06;5054391;28;20020;-75
2023/07/02 03:36:57;;;;;;;8.32;6.35;;;;;;;14.98;100.00;87271.84;5055292;28;20025;-76
2023/07/02 03:39:22;;;;;;;6.18;5.78;;;;;;;14.94;100.00;87270.34;5054800;28;20089;-75
2023/07/02 03:41:48;;;;;;;6.60;6.10;;;;;;;14.95;100.00;87261.25;5054883;28;20527;-76
2023/07/02 03:44:13;;;;;;;8.57;6.15;;;;;;;14.93;100.00;87263.53;5044322;28;20009;-76
2023/07/02 03:46:39;;;;;;;7.20;6.60;;;;;;;14.93;100.00;87258.25;5053321;28;20024;-76
2023/07/02 03:49:04;;;;;;;6.88;6.30;;;;;;;14.92;100.00;87262.00;5055286;28;20032;-76
2023/07/02 03:51:30;;;;;;;6.50;6.00;;;;;;;14.92;100.00;87254.06;5054930;28;20051;-75
2023/07/02 03:53:56;;;;;;;6.05;5.47;;;;;;;14.95;100.00;87255.97;5054734;28;20525;-75
2023/07/02 03:56:21;;;;;;;6.45;5.93;;;;;;;14.96;100.00;87252.94;5055302;28;20055;-76
2023/07/02 03:58:47;;;;;;;6.18;5.78;;;;;;;14.98;100.00;87247.28;5053492;28;20029;-75
2023/07/02 04:01:12;;;;;;;6.18;5.57;;;;;;;15.00;100.00;87242.38;5054894;28;20025;-76
2023/07/02 04:03:38;;;;;;;6.75;6.20;;;;;;;15.00;100.00;87247.66;5054760;28;20032;-75
2023/07/02 04:06:05;;;;;;;7.13;6.63;;;;;;;15.00;100.00;87243.13;5054547;28;20029;-75
2023/07/02 04:08:31;;;;;;;7.05;6.45;;;;;;;15.02;100.00;87256.72;5059218;28;20077;-76
2023/07/02 04:10:57;;;;;;;6.93;6.40;;;;;;;14.98;100.00;87266.53;5054459;28;20025;-75
2023/07/02 04:13:22;;;;;;;7.57;6.80;;;;;;;14.96;100.00;87266.16;5054388;28;20025;-76
2023/07/02 04:15:48;;;;;;;7.60;6.40;;;;;;;14.96;100.00;87271.47;5054847;28;20024;-76
2023/07/02 04:18:13;;;;;;;7.40;6.85;;;;;;;14.95;100.00;87288.47;5050103;28;20058;-75
2023/07/02 04:20:39;;;;;;;7.28;6.68;;;;;;;14.94;100.00;87286.22;5042767;28;20025;-75
2023/07/02 04:23:05;;;;;;;7.72;6.15;;;;;;;14.90;100.00;87292.22;5036677;28;20027;-75
2023/07/02 04:25:31;;;;;;;6.95;6.45;;;;;;;14.92;100.00;87270.69;5046136;28;20098;-75
2023/07/02 04:27:56;;;;;;;9.48;6.55;;;;;;;14.95;100.00;87266.56;5051023;28;20028;-75
2023/07/02 04:30:22;;;;;;;7.28;6.78;;;;;;;14.97;100.00;87274.88;5053165;28;20021;-76
2023/07/02 04:32:47;;;;;;;8.07;6.45;;;;;;;14.97;100.00;87277.50;5052040;28;20028;-75
2023/07/02 04:35:13;;;;;;;8.40;6.45;;;;;;;15.01;100.00;87270.34;5053891;28;20025;-75
2023/07/02 04:37:39;;;;;;;7.97;7.00;;;;;;;14.99;100.00;87283.19;5053989;28;20021;-75
2023/07/02 04:40:11;;;;;;;6.65;5.90;;;;;;;14.97;100.00;87296.03;5049404;28;20025;-75
2023/07/02 04:42:46;;;;;;;7.50;6.75;;;;;;;15.00;100.00;87298.66;5052711;28;20449;-76
2023/07/02 04:45:13;;;;;;;9.35;6.60;;;;;;;14.97;100.00;87302.06;5053395;28;20503;-76
2023/07/02 04:47:38;;;;;;;8.38;7.53;;;;;;;14.94;100.00;87328.53;5053414;28;20029;-75
2023/07/02 04:50:05;;;;;;;7.10;6.50;;;;;;;14.96;100.00;87326.25;5053005;28;20016;-76
2023/07/02 04:52:31;;;;;;;7.97;7.28;;;;;;;14.98;100.00;87331.94;5053943;28;20389;-76
2023/07/02 04:54:57;;;;;;;9.57;6.72;;;;;;;14.96;100.00;87342.88;5053563;28;20052;-76
2023/07/02 04:57:23;;;;;;;7.80;7.18;;;;;;;14.97;100.00;87348.94;5054301;28;20053;-76
2023/07/02 04:59:49;;;;;;;7.20;6.57;;;;;;;14.96;100.00;87356.09;5053958;28;20028;-75
2023/07/02 05:02:14;;;;;;;8.23;7.40;;;;;;;14.97;100.00;87364.81;5053590;28;20032;-75
2023/07/02 05:04:40;;;;;;;8.40;7.60;;;;;;;14.98;100.00;87361.03;5053868;28;20025;-76
2023/07/02 05:07:05;;;;;;;7.63;7.03;;;;;;;14.98;100.00;87361.78;5053247;28;20040;-75
2023/07/02 05:09:31;;;;;;;9.63;8.73;;;;;;;14.99;100.00;87358.00;5048935;28;20029;-75
2023/07/02 05:11:57;;;;;;;9.10;8.20;;;;;;;15.02;100.00;87335.34;5050180;28;20029;-76
2023/07/02 05:14:23;;;;;;;9.38;8.45;;;;;;;15.08;100.00;87328.56;5054087;28;20037;-75
2023/07/02 05:16:49;;;;;;;10.77;8.15;;;;;;;15.12;100.00;87307.41;5052128;28;20103;-76
2023/07/02 05:19:14;;;;;;;10.20;9.18;;;;;;;15.13;100.00;87309.66;5044227;28;20738;-75
2023/07/02 05:21:40;;;;;;;9.45;8.45;;;;;;;15.18;100.00;87288.13;5050349;28;20029;-76
2023/07/02 05:24:05;;;;;;;9.15;8.45;;;;;;;15.24;100.00;87282.47;5046885;28;20492;-76
2023/07/02 05:26:31;;;;;;;10.13;9.10;;;;;;;15.22;100.00;87290.78;5059844;28;20056;-75
2023/07/02 05:28:56;;;;;;;10.40;9.30;;;;;;;15.16;100.00;87295.69;5057971;28;20136;-76
2023/07/02 05:31:21;;;;;;;9.75;8.93;;;;;;;15.16;100.00;87308.16;5053103;28;20457;-76
2023/07/02 05:33:47;;;;;;;9.90;9.10;;;;;;;15.20;100.00;87302.88;5053484;28;20098;-76
2023/07/02 05:36:12;;;;;;;10.13;9.15;;;;;;;15.16;100.00;87314.22;5053626;28;20507;-76
2023/07/02 05:38:38;;;;;;;10.02;9.13;;;;;;;15.17;100.00;87326.31;5052511;28;20535;-76
2023/07/02 05:41:03;;;;;;;10.27;9.40;;;;;;;15.24;100.00;87325.56;5053661;28;20021;-76
2023/07/02 05:43:29;;;;;;;16.02;9.05;;;;;;;15.30;100.00;87325.94;5052005;28;20043;-76
2023/07/02 05:45:58;;;;;;;9.43;8.63;;;;;;;15.35;100.00;87317.63;5053476;28;20489;-76
2023/07/02 05:48:23;;;;;;;11.05;10.00;;;;;;;15.36;100.00;87329.75;5053795;28;20025;-76
2023/07/02 05:50:48;;;;;;;10.77;9.98;;;;;;;15.37;100.00;87349.81;5053228;28;20034;-76
2023/07/02 05:53:14;;;;;;;9.90;9.20;;;;;;;15.41;100.00;87363.03;5048774;28;20136;-76
2023/07/02 05:55:41;;;;;;;10.88;10.00;;;;;;;15.39;100.00;87374.00;5050386;28;20123;-76
2023/07/02 05:58:07;;;;;;;11.82;10.63;;;;;;;15.39;100.00;87400.47;5055910;28;20501;-76
2023/07/02 06:00:32;;;;;;;11.15;9.88;;;;;;;15.37;100.00;87420.50;5056482;28;20025;-76
2023/07/02 06:02:58;;;;;;;11.48;9.95;;;;;;;15.46;100.00;87421.66;5056985;28;20053;-76
2023/07/02 06:05:23;;;;;;;11.10;10.10;;;;;;;15.60;100.00;87394.47;5057068;28;20025;-75
2023/07/02 06:07:48;;;;;;;12.50;10.30;;;;;;;15.66;100.00;87397.50;5050662;28;20018;-76
2023/07/02 06:10:14;;;;;;;12.63;11.35;;;;;;;15.67;100.00;87398.25;5055323;28;20039;-76
2023/07/02 06:12:39;;;;;;;12.25;11.05;;;;;;;15.68;100.00;87411.13;5057007;28;20074;-76
2023/07/02 06:15:05;;;;;;;12.02;10.93;;;;;;;15.67;100.00;87436.09;5056601;28;20075;-76
2023/07/02 06:17:31;;;;;;;13.15;11.50;;;;;;;15.68;100.00;87445.56;5057301;28;20025;-76
2023/07/02 06:19:57;;;;;;;12.55;11.35;;;;;;;15.71;100.00;87454.66;5054521;28;20028;-76
2023/07/02 06:22:23;;;;;;;12.45;11.27;;;;;;;15.79;100.00;87450.09;5035727;28;20041;-76
2023/07/02 06:24:49;;;;;;;12.52;11.43;;;;;;;15.83;100.00;87445.59;5055889;28;20017;-75
2023/07/02 06:27:14;;;;;;;11.85;10.70;;;;;;;15.87;100.00;87459.59;5066468;28;20111;-76
2023/07/02 06:29:40;;;;;;;15.35;12.05;;;;;;;15.88;100.00;87461.88;5056263;28;20021;-76
2023/07/02 06:32:06;;;;;;;12.00;11.10;;;;;;;15.92;100.00;87467.22;5056100;28;20035;-76
2023/07/02 06:34:31;;;;;;;12.85;11.55;;;;;;;15.93;100.00;87473.28;5052319;28;20416;-76
2023/07/02 06:36:56;;;;;;;12.75;11.52;;;;;;;15.94;100.00;87493.34;5056161;28;20036;-76
2023/07/02 06:39:22;;;;;;;14.00;12.57;;;;;;;15.95;100.00;87506.19;5053427;28;20424;-76
2023/07/02 06:41:47;;;;;;;13.13;11.95;;;;;;;15.98;100.00;87515.28;5054843;28;20458;-76
2023/07/02 06:44:13;;;;;;;13.02;11.90;;;;;;;16.00;100.00;87532.31;5055749;28;20072;-76
2023/07/02 06:46:38;;;;;;;14.07;12.68;;;;;;;16.10;100.00;87514.94;5055825;28;20062;-76
2023/07/02 06:49:06;;;;;;;14.10;12.70;;;;;;;16.06;100.00;87529.31;5055520;28;20029;-76
2023/07/02 06:51:33;;;;;;;13.45;12.20;;;;;;;16.12;100.00;87533.84;5056064;28;20031;-76
2023/07/02 06:53:58;;;;;;;12.73;11.63;;;;;;;16.22;100.00;87519.13;5055230;28;20049;-76
2023/07/02 06:56:24;;;;;;;12.60;11.13;;;;;;;16.29;100.00;87527.09;5056426;28;20170;-77
2023/07/02 06:58:49;;;;;;;13.00;11.90;;;;;;;16.36;100.00;87525.59;5055677;28;20024;-76
2023/07/02 07:01:15;;;;;;;13.32;12.23;;;;;;;16.42;100.00;87529.38;5055093;28;20021;-76
2023/07/02 07:03:40;;;;;;;13.43;12.02;;;;;;;16.47;100.00;87536.97;5054931;28;21123;-76
2023/07/02 07:06:05;;;;;;;12.20;11.07;;;;;;;16.59;100.00;87536.59;5053071;28;20036;-76
2023/07/02 07:08:31;;;;;;;13.40;12.13;;;;;;;16.69;100.00;87544.91;5060569;28;20027;-77
2023/07/02 07:10:56;;;;;;;16.10;13.50;;;;;;;16.81;100.00;87554.44;5055022;28;20097;-76
2023/07/02 07:13:21;;;;;;;14.35;12.93;;;;;;;16.88;100.00;87591.56;5054001;28;20116;-80
2023/07/02 07:15:49;;;;;;;15.00;13.60;;;;;;;17.03;100.00;87632.16;5053040;28;20052;-77
2023/07/02 07:18:15;;;;;;;15.18;12.68;;;;;;;17.27;100.00;87667.81;5043510;28;20029;-76
2023/07/02 07:20:41;;;;;;;13.48;12.18;;;;;;;17.33;100.00;87761.13;5055303;28;20077;-76
2023/07/02 07:23:09;;;;;;;14.27;12.88;;;;;;;17.53;100.00;87805.94;5043146;28;20439;-76
2023/07/02 07:25:35;;;;;;;16.00;13.25;;;;;;;17.78;100.00;87861.00;5053640;28;20059;-76
2023/07/02 07:28:01;;;;;;;15.73;13.00;;;;;;;18.04;100.00;87900.56;5065859;28;20064;-76
2023/07/02 07:30:26;;;;;;;13.60;12.50;;;;;;;18.07;100.00;88004.63;5055382;28;20025;-76
2023/07/02 07:32:53;;;;;;;14.07;12.77;;;;;;;18.12;100.00;88107.97;5055168;28;20025;-76
2023/07/02 07:35:20;;;;;;;13.93;12.70;;;;;;;18.24;100.00;88251.25;5054638;28;20029;-76
2023/07/02 07:37:45;;;;;;;13.90;12.50;;;;;;;18.41;100.00;88393.50;5053985;28;20100;-76
2023/07/02 07:40:12;;;;;;;13.70;12.50;;;;;;;18.62;100.00;88479.94;5055244;28;20063;-76
2023/07/02 07:42:37;;;;;;;12.88;11.77;;;;;;;19.07;100.00;88516.44;5053746;28;20028;-77
2023/07/02 07:45:03;;;;;;;14.10;12.88;;;;;;;19.43;100.00;88610.69;5055201;28;20816;-77
2023/07/02 07:47:29;;;;;;;12.95;11.68;;;;;;;19.66;100.00;88771.53;5052564;28;20136;-71
2023/07/02 07:49:54;;;;;;;13.40;11.93;;;;;;;19.86;100.00;88996.13;5049200;28;20056;-72
2023/07/02 07:52:20;;;;;;;13.20;12.00;;;;;;;20.00;100.00;89270.28;5046945;28;20029;-72
2023/07/02 07:54:46;;;;;;;12.75;11.65;;;;;;;20.28;100.00;89416.75;5048229;28;20044;-71
2023/07/02 07:57:11;;;;;;;13.63;11.80;;;;;;;20.42;100.00;89535.56;5050948;28;20129;-70
2023/07/02 07:59:37;;;;;;;13.90;10.98;;;;;;;20.61;100.00;89634.34;5053769;28;20025;-70
2023/07/02 08:02:02;;;;;;;12.80;11.48;;;;;;;20.58;100.00;89831.88;5046588;28;20128;-71
2023/07/02 08:04:28;;;;;;;12.18;11.02;;;;;;;21.21;100.00;89840.88;5053505;28;20047;-71
2023/07/02 08:06:54;;;;;;;11.40;10.48;;;;;;;21.53;100.00;89957.63;5053113;28;20384;-71
2023/07/02 08:09:20;;;;;;;12.25;11.10;;;;;;;22.00;100.00;90041.59;5051805;28;20469;-71
2023/07/02 08:11:46;;;;;;;11.50;10.57;;;;;;;22.43;100.00;90200.44;5053792;28;20110;-70
2023/07/02 08:14:11;;;;;;;10.75;9.65;;;;;;;23.03;100.00;90312.00;5047281;28;20029;-70
2023/07/02 08:16:37;;;;;;;10.77;9.77;;;;;;;23.25;100.00;90553.84;5049320;28;20520;-71
2023/07/02 08:19:02;;;;;;;11.32;10.32;;;;;;;23.29;100.00;90814.88;5053754;28;20053;-70
2023/07/02 08:21:28;;;;;;;10.85;9.93;;;;;;;23.31;100.00;90935.25;5053524;28;20021;-70
2023/07/02 08:23:53;;;;;;;11.52;10.45;;;;;;;23.56;100.00;90992.34;5053287;28;20036;-71
2023/07/02 08:26:18;;;;;;;11.32;10.30;;;;;;;23.60;100.00;91138.16;5050826;28;20045;-69
2023/07/02 08:28:44;;;;;;;11.25;10.15;;;;;;;23.79;100.00;91154.84;5048418;28;20519;-69
2023/07/02 08:31:09;;;;;;;11.35;10.35;;;;;;;24.05;100.00;91247.75;5054184;28;20082;-72
2023/07/02 08:33:35;;;;;;;11.80;10.70;;;;;;;24.25;100.00;91405.38;5052775;28;20024;-72
2023/07/02 08:36:01;;;;;;;11.23;10.27;;;;;;;24.57;100.00;91510.50;5052144;28;20190;-71
2023/07/02 08:38:26;;;;;;;10.98;9.88;;;;;;;24.95;100.00;91642.41;5052243;28;20482;-72
2023/07/02 08:40:52;;;;;;;11.02;10.02;;;;;;;24.52;100.00;91876.28;5052462;28;20028;-71
2023/07/02 08:43:17;;;;;;;16.88;15.23;;;;;;;23.95;100.00;92023.16;5049907;28;20029;-72
2023/07/02 08:45:43;;;;;;;35.75;32.08;;;;;;;23.65;100.00;92124.19;5052951;28;20021;-71
2023/07/02 08:48:10;;;;;;;21.67;19.67;;;;;;;23.70;100.00;92124.84;5052699;28;20032;-72
2023/07/02 08:50:36;;;;;;;34.47;30.98;;;;;;;24.34;100.00;92093.25;5054002;28;20053;-71
2023/07/02 08:53:01;;;;;;;14.95;13.60;;;;;;;24.83;100.00;92191.81;5048371;28;20391;-72
2023/07/02 08:55:29;;;;;;;19.77;17.52;;;;;;;24.60;100.00;92307.53;5047616;28;20033;-70
2023/07/02 08:58:00;;;;;;;19.30;16.05;;;;;;;24.88;100.00;92359.22;5047117;28;20527;-71
2023/07/02 09:00:26;;;;;;;19.77;16.00;;;;;;;25.03;100.00;92398.34;5045902;28;20122;-70
2023/07/02 09:02:52;;;;;;;25.27;22.52;;;;;;;25.40;100.00;92516.53;5053983;28;20029;-70
2023/07/02 09:05:17;;;;;;;89.90;69.68;;;;;;;25.47;100.00;92572.66;5052058;28;20036;-70
2023/07/02 09:07:50;;;;;;;15.20;13.77;;;;;;;25.45;100.00;92601.75;5049579;28;20060;-75
2023/07/02 09:10:30;;;;;;;25.50;22.90;;;;;;;25.76;100.00;92645.94;5050337;28;20020;-79
2023/07/02 09:13:05;;;;;;;26.75;23.98;;;;;;;26.03;100.00;92726.56;5048491;28;20060;-78
2023/07/02 09:15:37;;;;;;;16.48;14.80;;;;;;;26.09;100.00;92794.59;5053369;28;20053;-88
2023/07/02 09:18:13;;;;;;;11.32;10.32;;;;;;;25.64;100.00;92889.72;5052736;28;20065;-76
2023/07/02 09:20:39;;;;;;;10.75;9.65;;;;;;;25.52;100.00;92882.19;5047343;28;20075;-77
2023/07/02 09:23:04;;;;;;;10.57;9.65;;;;;;;25.94;100.00;92867.75;5053267;28;20033;-76
2023/07/02 09:25:38;;;;;;;10.68;9.75;;;;;;;26.12;100.00;92942.22;5047516;28;20154;-80
2023/07/02 09:28:14;;;;;;;10.25;9.25;;;;;;;26.46;100.00;93056.03;5046991;28;20047;-77
2023/07/02 09:30:50;;;;;;;11.15;10.05;;;;;;;26.36;100.00;93199.19;5044783;28;20029;-79
2023/07/02 09:33:16;;;;;;;23.27;21.15;;;;;;;26.77;100.00;93182.09;5052062;28;20052;-79
2023/07/02 09:35:41;;;;;;;12.77;11.55;;;;;;;26.62;100.00;93179.75;5057110;28;20490;-82
2023/07/02 09:38:06;;;;;;;15.65;14.32;;;;;;;26.77;100.00;93236.06;5057101;28;20121;-82
2023/07/02 09:40:33;;;;;;;13.55;11.32;;;;;;;26.44;100.00;93298.28;5054221;28;20033;-81
2023/07/02 09:42:59;;;;;;;10.85;9.85;;;;;;;26.76;100.00;93214.81;5057948;28;20021;-76
2023/07/02 09:45:25;;;;;;;18.63;17.00;;;;;;;26.52;100.00;93375.81;5056769;28;20020;-74
2023/07/02 09:47:54;;;;;;;25.42;23.00;;;;;;;26.71;100.00;93404.59;5056885;28;20665;-76
2023/07/02 09:50:20;;;;;;;13.85;12.60;;;;;;;26.63;100.00;93416.88;5056214;28;20025;-74
2023/07/02 09:52:47;;;;;;;10.43;8.98;;;;;;;26.93;100.00;93376.13;5053623;28;20052;-75
2023/07/02 09:55:15;;;;;;;15.52;8.80;;;;;;;26.71;100.00;93396.50;5055037;28;20547;-76
2023/07/02 09:57:43;;;;;;;9.73;8.88;;;;;;;27.10;100.00;93473.50;5055826;28;20055;-76
2023/07/02 10:00:09;;;;;;;9.35;8.55;;;;;;;27.07;100.00;93565.88;5054943;28;20043;-78
2023/07/02 10:02:36;;;;;;;9.30;8.50;;;;;;;27.54;100.00;93617.16;5050222;28;20029;-76
2023/07/02 10:05:01;;;;;;;8.50;7.80;;;;;;;27.90;100.00;93685.16;5055966;28;20064;-76
2023/07/02 10:07:32;;;;;;;8.85;8.10;;;;;;;27.60;100.00;93769.19;5056299;28;20056;-77
2023/07/02 10:09:58;;;;;;;9.57;8.73;;;;;;;27.63;100.00;93725.38;5056253;28;20159;-76
2023/07/02 10:12:28;;;;;;;9.30;8.50;;;;;;;27.83;100.00;93748.50;5054936;28;20060;-77
2023/07/02 10:14:56;;;;;;;9.80;8.82;;;;;;;27.90;100.00;93794.06;5056605;28;20037;-75
2023/07/02 10:17:32;;;;;;;14.48;13.07;;;;;;;27.96;100.00;93836.13;5055820;28;20029;-78
2023/07/02 10:20:11;;;;;;;11.27;10.38;;;;;;;28.21;100.00;93873.88;5056235;28;20084;-81
2023/07/02 10:22:47;;;;;;;10.18;9.27;;;;;;;28.03;100.00;93995.31;5053570;28;20032;-79
2023/07/02 10:25:27;;;;;;;10.70;9.80;;;;;;;27.49;100.00;93964.97;5051577;28;20024;-81
2023/07/02 10:27:52;;;;;;;10.68;9.80;;;;;;;27.73;100.00;93943.31;5062327;28;20029;-81
2023/07/02 10:30:18;;;;;;;9.82;8.95;;;;;;;27.69;100.00;93928.78;5051203;28;20032;-81
2023/07/02 10:32:43;;;;;;;9.50;8.35;;;;;;;27.93;100.00;93847.56;5051987;28;20029;-81
2023/07/02 10:35:16;;;;;;;9.63;8.73;;;;;;;27.71;100.00;93853.63;5052442;28;20092;-80
2023/07/02 10:37:42;;;;;;;9.02;8.23;;;;;;;28.25;100.00;93977.69;5060317;28;20025;-80
2023/07/02 10:40:09;;;;;;;9.65;8.80;;;;;;;28.49;100.00;93976.75;5057614;28;20032;-83
2023/07/02 10:42:45;;;;;;;8.30;7.68;;;;;;;28.66;100.00;94017.59;5052584;28;20385;-84
2023/07/02 10:45:11;;;;;;;9.25;8.20;;;;;;;28.40;100.00;94095.66;5053113;28;20017;-81
2023/07/02 10:47:39;;;;;;;8.93;8.13;;;;;;;28.35;100.00;94096.56;5051934;28;20370;-82
2023/07/02 10:50:26;;;;;;;8.82;8.02;;;;;;;28.50;100.00;94162.38;5055425;28;20406;-85
2023/07/02 10:52:52;;;;;;;9.52;8.65;;;;;;;28.29;100.00;94128.31;5050339;28;20036;-83
2023/07/02 10:55:25;;;;;;;8.77;8.02;;;;;;;28.12;100.00;94120.69;5052315;28;20037;-82
2023/07/02 10:58:03;;;;;;;11.63;8.98;;;;;;;28.49;100.00;94149.94;5054786;28;20111;-83
2023/07/02 11:00:29;;;;;;;9.48;8.68;;;;;;;28.65;100.00;94172.19;5053416;28;20028;-80
2023/07/02 11:02:54;;;;;;;9.13;8.32;;;;;;;28.85;100.00;94227.94;5052416;28;20727;-84
2023/07/02 11:05:20;;;;;;;8.50;7.80;;;;;;;28.86;100.00;94276.41;5054141;28;20021;-81
2023/07/02 11:07:45;;;;;;;10.20;9.30;;;;;;;28.88;100.00;94217.34;5046032;28;20512;-78
2023/07/02 11:10:18;;;;;;;10.30;8.27;;;;;;;28.94;100.00;94144.94;5050172;28;20017;-81
2023/07/02 11:12:45;;;;;;;8.50;7.75;;;;;;;28.93;100.00;94261.69;5049901;28;20020;-79
2023/07/02 11:15:14;;;;;;;10.90;7.90;;;;;;;28.88;100.00;94270.69;5052993;28;20021;-79